FKYS/NSI METAR and TAF weather

Enter ICAO airport designator
Station Type Date Time Source
FKYS METAR 2020/04/06 08:00 UTC NOAA

FKYS 060800Z 02003KT 330V070 8000 BKN006 22/21 Q1019 BECMG BKN010


Station Type Date Time Source
FKYS Decoded METAR 2020/04/06 08:00 UTC NOAA

Yaounde, Cameroon (FKYS) 03-50N 011-31E 760M
Apr 06, 2020 - 04:00 AM EDT / 2020.04.06 0800 UTC
Wind: from the NNE (020 degrees) at 3 MPH (3 KT) (direction variable):0
Visibility: 4 mile(s):0
Sky conditions: mostly cloudy
Temperature: 71 F (22 C)
Dew Point: 69 F (21 C)
Relative Humidity: 94%
Pressure (altimeter): 30.09 in. Hg (1019 hPa)
ob: FKYS 060800Z 02003KT 330V070 8000 BKN006 22/21 Q1019 BECMG BKN010
cycle: 8

Station Type Date Time Source
FKYS TAF 2020/04/06 06:19 UTC NOAA

TAF FKYS 060500Z 0606/0706 VRB05KT 6000 BKN006
BECMG 0607/0609 BKN016 PROB30
TEMPO 0615/0620 TS BKN013 FEW020CB
BECMG 0620/0622 BKN006

Example: see airport list